ソチ の空港の天気 - METARとTAF

ソチ空港 ( URSS / AER ) - ロシア ソチ
飛行場実況気象(Metar)
観測時間01/18 12:30 MSK (01/18 09:30 UTC)
風向・風速東南東 8m/s
視程10km以上
天気現象
少しの雲 雲底高度 3050m
気温15℃
湿度39%
気圧999hPa
METARURSS 180930Z 12008MPS 9999 FEW100 15/01 Q0999 WS R06 R06/190060 R02/////// NOSIG RMK R02/12005G09MPS QFE748
過去の天気等 Google飛行場航空写真 Wunderground天気予報

過去48時間のMETAR

飛行場予報(TAF)
発表時間: 1/18 10:57 MSK (1/18 07:57 UTC)
予報対象時間: 18日12時 MSK ~ 19日12時 MSK
風向・風速南南東 7m/s 瞬間風速 12m/s
視程10km以上
全天の4割程度の積乱雲 雲底高度 910m
全天の8割程度の雲 雲底高度 3,050m
18日12時 MSK ~ 18日21時 MSK に一時的に
風向・風速北東 5m/s
18日21時 MSK ~ 19日9時 MSK に一時的に
風向・風速不定 8m/s 瞬間風速 16m/s
視程2,200m
天気現象弱い雷雨
全天の4割程度の雲 雲底高度 300m
全天の8割程度の積乱雲 雲底高度 910m
全天の8割程度の雲 雲底高度 3,050m
TAF URSS 180757Z 1809/1909 16007G12MPS 9999 SCT030CB BKN100
TEMPO 1809/1818 04005MPS
TEMPO 1818/1906 VRB08G16MPS 2200 -TSRA SCT010 BKN030CB BKN100